createdAt,value
2023-03-21T00:02:24.368Z,10.20
2023-03-21T00:05:15.723Z,10.20
2023-03-21T00:08:02.694Z,10.20
2023-03-21T00:10:48.475Z,10.20
2023-03-21T00:13:38.402Z,10.10
2023-03-21T00:16:31.003Z,10.10
2023-03-21T00:19:19.280Z,10.10
2023-03-21T00:22:08.026Z,10.00
2023-03-21T00:24:54.368Z,10.00
2023-03-21T00:27:56.917Z,9.90
2023-03-21T00:30:46.008Z,9.90
2023-03-21T00:33:31.644Z,9.90
2023-03-21T00:36:17.274Z,9.90
2023-03-21T00:39:02.837Z,9.90
2023-03-21T00:41:50.144Z,9.90
2023-03-21T00:44:37.064Z,9.90
2023-03-21T00:47:24.672Z,9.90
2023-03-21T00:50:12.010Z,9.90
2023-03-21T00:52:58.100Z,9.90
2023-03-21T00:55:43.770Z,9.90
2023-03-21T00:58:29.451Z,9.90
2023-03-21T01:01:15.669Z,9.90
2023-03-21T01:04:07.441Z,9.90
2023-03-21T01:06:53.954Z,9.90
2023-03-21T01:09:39.491Z,9.80
2023-03-21T01:12:25.120Z,9.80
2023-03-21T01:15:11.322Z,9.80
2023-03-21T01:17:57.212Z,9.80
2023-03-21T01:20:43.526Z,9.80
2023-03-21T01:23:29.472Z,9.70
2023-03-21T01:26:15.514Z,9.70
2023-03-21T01:29:03.697Z,9.70
2023-03-21T01:31:49.692Z,9.70
2023-03-21T01:34:36.288Z,9.70
2023-03-21T01:37:21.625Z,9.60
2023-03-21T01:40:12.805Z,9.70
2023-03-21T01:43:00.115Z,9.70
2023-03-21T01:46:04.570Z,9.70
2023-03-21T01:49:13.225Z,9.60
2023-03-21T01:52:11.571Z,9.60
2023-03-21T01:54:58.837Z,9.60
2023-03-21T01:58:04.312Z,9.60
2023-03-21T02:00:56.748Z,9.60
2023-03-21T02:03:52.077Z,9.50
2023-03-21T02:06:52.387Z,9.50
2023-03-21T02:09:48.876Z,9.50
2023-03-21T02:12:38.647Z,9.50
2023-03-21T02:15:26.534Z,9.50
2023-03-21T02:18:29.915Z,9.40
2023-03-21T02:21:51.392Z,9.40
2023-03-21T02:24:38.498Z,9.40
2023-03-21T02:27:27.881Z,9.40
2023-03-21T02:30:30.461Z,8.90
2023-03-21T02:33:34.499Z,9.30
2023-03-21T02:36:20.287Z,9.10
2023-03-21T02:39:26.476Z,9.00
2023-03-21T02:42:19.136Z,8.90
2023-03-21T02:45:12.844Z,8.80
2023-03-21T02:48:07.012Z,8.80
2023-03-21T02:50:55.219Z,8.70
2023-03-21T02:53:43.482Z,8.60
2023-03-21T02:56:29.379Z,8.60
2023-03-21T02:59:17.656Z,8.60
2023-03-21T03:02:03.770Z,8.60
2023-03-21T03:04:49.611Z,8.70
2023-03-21T03:07:56.142Z,8.60
2023-03-21T03:10:51.283Z,8.60
2023-03-21T03:13:53.951Z,8.70
2023-03-21T03:16:44.947Z,8.60
2023-03-21T03:19:41.694Z,8.60
2023-03-21T03:22:41.007Z,8.60
2023-03-21T03:25:41.506Z,8.60
2023-03-21T03:28:31.903Z,8.60
2023-03-21T03:31:22.032Z,8.60
2023-03-21T03:34:14.273Z,8.60
2023-03-21T03:37:04.682Z,8.50
2023-03-21T03:39:53.178Z,8.50
2023-03-21T03:42:43.350Z,8.50
2023-03-21T03:45:54.850Z,8.50
2023-03-21T03:48:49.454Z,8.50
2023-03-21T03:51:39.097Z,8.40
2023-03-21T03:54:37.048Z,8.40
2023-03-21T03:57:24.826Z,8.40
2023-03-21T04:00:13.069Z,8.40
2023-03-21T04:03:10.012Z,8.40
2023-03-21T04:05:56.154Z,8.30
2023-03-21T04:08:42.138Z,8.30
2023-03-21T04:11:27.588Z,8.20
2023-03-21T04:14:14.483Z,8.20
2023-03-21T04:17:01.277Z,8.20
2023-03-21T04:19:47.033Z,8.30
2023-03-21T04:22:33.415Z,8.30
2023-03-21T04:25:32.582Z,8.20
2023-03-21T04:28:22.211Z,8.20
2023-03-21T04:31:25.476Z,8.30
2023-03-21T04:34:24.023Z,8.30
2023-03-21T04:37:13.501Z,8.20
2023-03-21T04:39:59.870Z,8.30
2023-03-21T04:42:46.211Z,8.30
2023-03-21T04:45:31.958Z,8.30
2023-03-21T04:48:19.829Z,8.40
2023-03-21T04:51:05.642Z,8.40
2023-03-21T04:53:52.540Z,8.40
2023-03-21T04:56:38.517Z,8.40
2023-03-21T04:59:24.177Z,8.40
2023-03-21T05:02:10.850Z,8.40
2023-03-21T05:04:57.501Z,8.40
2023-03-21T05:07:43.181Z,8.40
2023-03-21T05:10:29.070Z,8.40
2023-03-21T05:13:14.805Z,8.40
2023-03-21T05:16:00.829Z,8.40
2023-03-21T05:18:50.669Z,8.40
2023-03-21T05:21:41.983Z,8.40
2023-03-21T05:24:37.381Z,8.40
2023-03-21T05:27:36.796Z,8.40
2023-03-21T05:30:29.836Z,8.40
2023-03-21T05:33:18.118Z,8.40
2023-03-21T05:36:04.259Z,8.40
2023-03-21T05:38:51.433Z,8.40
2023-03-21T05:41:36.887Z,8.40
2023-03-21T05:44:23.731Z,8.40
2023-03-21T05:47:10.198Z,8.40
2023-03-21T05:50:00.804Z,8.50
2023-03-21T05:52:46.854Z,8.40
2023-03-21T05:55:33.603Z,8.70
2023-03-21T05:58:19.303Z,9.00
2023-03-21T06:01:08.916Z,9.10
2023-03-21T06:03:57.027Z,9.30
2023-03-21T06:06:45.778Z,9.80
2023-03-21T06:09:32.323Z,10.30
2023-03-21T06:12:21.344Z,10.80
2023-03-21T06:15:23.423Z,11.40
2023-03-21T06:18:13.732Z,12.00
2023-03-21T06:21:09.389Z,12.50
2023-03-21T06:23:57.857Z,12.90
2023-03-21T06:26:43.982Z,13.30
2023-03-21T06:29:30.078Z,13.60
2023-03-21T06:32:16.322Z,13.90
2023-03-21T06:35:03.568Z,14.30
2023-03-21T06:37:51.072Z,14.60
2023-03-21T06:40:38.364Z,14.80
2023-03-21T06:43:24.525Z,14.90
2023-03-21T06:46:10.569Z,14.70
2023-03-21T06:48:56.545Z,14.40
2023-03-21T06:51:42.316Z,14.20
2023-03-21T06:54:33.710Z,14.00
2023-03-21T06:57:26.337Z,14.10
2023-03-21T07:00:12.475Z,14.20
2023-03-21T07:03:03.900Z,14.40
2023-03-21T07:05:50.203Z,14.50
2023-03-21T07:08:35.758Z,14.70
2023-03-21T07:11:22.164Z,14.80
2023-03-21T07:14:08.464Z,14.90
2023-03-21T07:16:54.101Z,15.00
2023-03-21T07:19:40.077Z,15.10
2023-03-21T07:22:25.650Z,15.20
2023-03-21T07:25:12.761Z,15.20
2023-03-21T07:27:58.891Z,15.20
2023-03-21T07:30:44.961Z,15.30
2023-03-21T07:33:30.879Z,15.30
2023-03-21T07:36:19.002Z,15.40
2023-03-21T07:39:04.880Z,15.50
2023-03-21T07:41:50.871Z,15.70
2023-03-21T07:44:48.015Z,15.90
2023-03-21T07:47:34.038Z,15.90
2023-03-21T07:50:19.607Z,16.00
2023-03-21T07:53:05.222Z,16.10
2023-03-21T07:55:51.431Z,16.30
2023-03-21T07:58:36.918Z,16.40
2023-03-21T08:01:23.482Z,16.40
2023-03-21T08:04:09.093Z,16.50
2023-03-21T08:06:55.030Z,16.60
2023-03-21T08:09:41.050Z,16.80
2023-03-21T08:12:26.818Z,16.90
2023-03-21T08:15:13.223Z,17.00
2023-03-21T08:17:59.822Z,17.20
2023-03-21T08:20:46.113Z,17.30
2023-03-21T08:23:32.252Z,17.40
2023-03-21T08:26:30.198Z,17.40
2023-03-21T08:29:15.754Z,17.30
2023-03-21T08:32:01.395Z,17.40
2023-03-21T08:34:47.152Z,17.70
2023-03-21T08:37:33.503Z,17.80
2023-03-21T08:40:20.794Z,17.90
2023-03-21T08:43:06.241Z,17.90
2023-03-21T08:45:52.873Z,17.90
2023-03-21T08:48:38.845Z,18.00
2023-03-21T08:51:24.490Z,18.10
2023-03-21T08:54:16.914Z,18.30
2023-03-21T08:57:02.452Z,18.50
2023-03-21T08:59:48.267Z,18.40
2023-03-21T09:02:34.175Z,18.40
2023-03-21T09:05:20.786Z,18.50
2023-03-21T09:08:06.296Z,18.40
2023-03-21T09:10:55.773Z,18.30
2023-03-21T09:13:41.519Z,18.60
2023-03-21T09:16:27.077Z,18.80
2023-03-21T09:19:12.942Z,18.80
2023-03-21T09:21:58.773Z,18.30
2023-03-21T09:24:47.758Z,18.30
2023-03-21T09:27:33.944Z,18.40
2023-03-21T09:30:21.650Z,18.40
2023-03-21T09:33:08.911Z,18.40
2023-03-21T09:35:55.404Z,18.40
2023-03-21T09:38:42.963Z,18.20
2023-03-21T09:41:37.629Z,18.20
2023-03-21T09:44:42.242Z,18.20
2023-03-21T09:47:34.843Z,18.10
2023-03-21T09:50:20.649Z,18.10
2023-03-21T09:53:30.755Z,17.70
2023-03-21T09:56:17.212Z,17.80
2023-03-21T09:59:03.893Z,17.80
2023-03-21T10:01:50.364Z,17.90
2023-03-21T10:04:37.788Z,17.90
2023-03-21T10:07:23.745Z,18.10
2023-03-21T10:10:16.191Z,18.20
2023-03-21T10:13:01.924Z,18.20
2023-03-21T10:15:47.838Z,18.40
2023-03-21T10:18:33.886Z,18.40
2023-03-21T10:21:51.499Z,18.50
2023-03-21T10:24:31.738Z,18.50
2023-03-21T10:27:17.572Z,18.50
2023-03-21T10:30:07.383Z,18.60
2023-03-21T10:32:54.164Z,18.20
2023-03-21T10:35:42.116Z,18.20
2023-03-21T10:38:28.244Z,18.20
2023-03-21T10:41:14.257Z,18.20
2023-03-21T10:44:17.289Z,18.10
2023-03-21T10:47:09.660Z,18.00
2023-03-21T10:50:11.283Z,17.90
2023-03-21T10:53:00.623Z,17.80
2023-03-21T10:55:47.816Z,17.90
2023-03-21T10:58:36.122Z,18.00
2023-03-21T11:01:26.150Z,18.20
2023-03-21T11:04:16.425Z,18.40
2023-03-21T11:07:07.447Z,18.40
2023-03-21T11:09:57.794Z,18.50
2023-03-21T11:12:47.952Z,18.40
2023-03-21T11:15:36.881Z,18.40
2023-03-21T11:18:23.506Z,18.40
2023-03-21T11:21:11.700Z,18.50
2023-03-21T11:23:57.473Z,18.40
2023-03-21T11:26:45.071Z,18.40
2023-03-21T11:29:33.531Z,18.30
2023-03-21T11:32:25.213Z,18.40
2023-03-21T11:35:18.245Z,18.40
2023-03-21T11:38:05.738Z,18.20
2023-03-21T11:40:57.360Z,18.30
2023-03-21T11:43:51.060Z,18.40
2023-03-21T11:46:40.661Z,18.30
2023-03-21T11:49:28.350Z,18.40
2023-03-21T11:52:17.893Z,18.50
2023-03-21T11:55:21.664Z,18.50
2023-03-21T11:58:26.456Z,18.40
2023-03-21T12:01:15.977Z,18.40
2023-03-21T12:04:08.078Z,18.60
2023-03-21T12:06:57.533Z,18.70
2023-03-21T12:09:43.074Z,18.60
2023-03-21T12:12:47.416Z,18.60
2023-03-21T12:15:33.130Z,18.70
2023-03-21T12:18:18.772Z,18.60
2023-03-21T12:21:34.138Z,18.60
2023-03-21T12:24:24.000Z,18.60
2023-03-21T12:27:15.650Z,18.80
2023-03-21T12:30:21.011Z,19.00
2023-03-21T12:33:17.117Z,18.90
2023-03-21T12:36:30.794Z,18.70
2023-03-21T12:39:30.650Z,18.70
2023-03-21T12:42:19.331Z,18.50
2023-03-21T12:45:17.024Z,18.70
2023-03-21T12:48:21.107Z,18.90
2023-03-21T12:51:10.572Z,19.00
2023-03-21T12:53:59.326Z,19.00
2023-03-21T12:56:44.873Z,19.10
2023-03-21T12:59:36.764Z,19.00
2023-03-21T13:02:26.434Z,19.00
2023-03-21T13:05:28.006Z,19.10
2023-03-21T13:08:18.302Z,18.90
2023-03-21T13:11:06.843Z,19.00
2023-03-21T13:14:06.991Z,18.90
2023-03-21T13:17:00.545Z,19.00
2023-03-21T13:19:51.357Z,19.10
2023-03-21T13:22:36.976Z,19.20
2023-03-21T13:25:24.340Z,19.00
2023-03-21T13:28:17.801Z,19.00
2023-03-21T13:31:19.776Z,19.00
2023-03-21T13:34:09.240Z,18.90
2023-03-21T13:37:00.767Z,18.90
2023-03-21T13:39:47.350Z,19.00
2023-03-21T13:42:33.909Z,19.00
2023-03-21T13:45:24.703Z,19.20
2023-03-21T13:48:30.749Z,19.00
2023-03-21T13:51:19.969Z,19.00
2023-03-21T13:54:08.842Z,19.00
2023-03-21T13:56:56.859Z,19.00
2023-03-21T13:59:45.773Z,19.00
2023-03-21T14:02:34.689Z,19.10
2023-03-21T14:05:21.851Z,19.10
2023-03-21T14:08:24.748Z,19.00
2023-03-21T14:11:16.744Z,19.00
2023-03-21T14:14:03.407Z,19.00
2023-03-21T14:19:35.874Z,19.20
2023-03-21T14:22:21.897Z,19.20
2023-03-21T14:25:10.838Z,19.20
2023-03-21T14:27:59.253Z,19.10
2023-03-21T14:30:45.591Z,19.10
2023-03-21T14:33:37.713Z,19.00
2023-03-21T14:36:30.712Z,19.00
2023-03-21T14:39:24.173Z,19.00
2023-03-21T14:42:12.251Z,19.00
2023-03-21T14:45:00.519Z,19.10
2023-03-21T14:48:00.014Z,19.10
2023-03-21T14:50:51.219Z,19.10
2023-03-21T14:53:38.003Z,19.10
2023-03-21T14:56:25.573Z,19.20
2023-03-21T14:59:13.720Z,19.10
2023-03-21T15:02:00.114Z,19.00
2023-03-21T15:04:48.368Z,19.10
2023-03-21T15:07:36.339Z,19.10
2023-03-21T15:10:21.778Z,19.10
2023-03-21T15:13:19.413Z,19.10
2023-03-21T15:16:05.341Z,19.10
2023-03-21T15:18:51.570Z,18.90
2023-03-21T15:21:42.913Z,18.90
2023-03-21T15:24:30.623Z,19.00
2023-03-21T15:27:18.838Z,19.10
2023-03-21T15:30:04.752Z,19.10
2023-03-21T15:32:50.496Z,19.10
2023-03-21T15:35:38.884Z,19.10
2023-03-21T15:38:34.118Z,19.00
2023-03-21T15:41:19.662Z,19.10
2023-03-21T15:44:11.417Z,19.00
2023-03-21T15:46:57.595Z,19.00
2023-03-21T15:49:43.200Z,19.00
2023-03-21T15:52:28.705Z,19.00
2023-03-21T15:55:26.238Z,18.90
2023-03-21T15:58:19.687Z,18.90
2023-03-21T16:01:07.175Z,18.90
2023-03-21T16:03:57.394Z,18.90
2023-03-21T16:07:16.104Z,18.80
2023-03-21T16:10:04.726Z,18.80
2023-03-21T16:12:50.460Z,18.70
2023-03-21T16:15:36.325Z,18.70
2023-03-21T16:18:22.151Z,18.70
2023-03-21T16:21:09.998Z,18.60
2023-03-21T16:23:56.408Z,18.60
2023-03-21T16:26:47.842Z,18.50
2023-03-21T16:29:33.497Z,18.50
2023-03-21T16:32:20.562Z,18.40
2023-03-21T16:35:07.067Z,18.40
2023-03-21T16:37:52.892Z,18.40
2023-03-21T16:40:41.007Z,18.30
2023-03-21T16:43:26.742Z,18.30
2023-03-21T16:46:19.911Z,18.20
2023-03-21T16:49:05.847Z,18.20
2023-03-21T16:51:52.024Z,18.20
2023-03-21T16:54:38.414Z,18.10
2023-03-21T16:57:28.105Z,18.10
2023-03-21T17:00:16.770Z,18.00
2023-03-21T17:03:08.885Z,18.00
2023-03-21T17:05:54.336Z,18.00
2023-03-21T17:08:40.262Z,18.00
2023-03-21T17:11:27.438Z,17.90
2023-03-21T17:14:13.512Z,17.90
2023-03-21T17:16:59.390Z,17.80
2023-03-21T17:19:44.915Z,17.70
2023-03-21T17:22:30.397Z,17.70
2023-03-21T17:25:16.658Z,17.60
2023-03-21T17:28:02.303Z,17.60
2023-03-21T17:30:47.981Z,17.50
2023-03-21T17:33:33.751Z,17.50
2023-03-21T17:36:24.742Z,17.40
2023-03-21T17:39:16.814Z,17.30
2023-03-21T17:42:02.711Z,17.20
2023-03-21T17:44:48.307Z,17.20
2023-03-21T17:47:35.483Z,17.20
2023-03-21T17:50:27.996Z,17.10
2023-03-21T17:53:14.935Z,17.10
2023-03-21T17:56:00.927Z,17.00
2023-03-21T17:58:47.212Z,16.90
2023-03-21T18:01:33.046Z,16.90
2023-03-21T18:04:19.859Z,16.80
2023-03-21T18:07:10.675Z,16.70
2023-03-21T18:09:59.162Z,16.70
2023-03-21T18:12:47.287Z,16.60
2023-03-21T18:15:32.924Z,16.50
2023-03-21T18:18:18.361Z,16.40
2023-03-21T18:21:04.299Z,16.40
2023-03-21T18:23:50.402Z,16.20
2023-03-21T18:26:36.350Z,16.20
2023-03-21T18:32:28.170Z,16.90
2023-03-21T18:35:15.618Z,16.10
2023-03-21T18:38:03.008Z,16.00
2023-03-21T18:40:48.776Z,16.00
2023-03-21T18:46:46.949Z,15.90
2023-03-21T18:52:38.096Z,15.80
2023-03-21T18:55:39.288Z,15.70
2023-03-21T18:58:30.245Z,15.70
2023-03-21T19:01:16.057Z,15.60
2023-03-21T19:04:25.350Z,15.60
2023-03-21T19:07:08.568Z,15.60
2023-03-21T19:10:15.955Z,15.50
2023-03-21T19:13:02.179Z,15.50
2023-03-21T19:15:49.525Z,15.50
2023-03-21T19:18:56.656Z,15.40
2023-03-21T19:21:41.264Z,15.40
2023-03-21T19:24:28.904Z,15.40
2023-03-21T19:27:14.988Z,15.30
2023-03-21T19:30:14.361Z,15.30
2023-03-21T19:33:01.728Z,15.20
2023-03-21T19:35:47.370Z,15.20
2023-03-21T19:38:33.098Z,15.20
2023-03-21T19:41:20.190Z,15.10
2023-03-21T19:44:06.129Z,15.10
2023-03-21T19:46:51.779Z,15.00
2023-03-21T19:50:20.787Z,15.00
2023-03-21T19:52:46.203Z,15.00
2023-03-21T19:55:31.974Z,14.90
2023-03-21T19:58:22.659Z,14.90
2023-03-21T20:01:09.398Z,14.80
2023-03-21T20:03:55.381Z,14.80
2023-03-21T20:06:41.133Z,14.80
2023-03-21T20:12:33.362Z,14.70
2023-03-21T20:15:21.675Z,14.70
2023-03-21T20:18:08.841Z,14.60
2023-03-21T20:20:55.213Z,14.60
2023-03-21T20:23:43.461Z,14.60
2023-03-21T20:26:30.991Z,14.50
2023-03-21T20:30:07.041Z,14.50
2023-03-21T20:32:22.319Z,14.50
2023-03-21T20:35:19.052Z,14.50
2023-03-21T20:38:09.557Z,14.50
2023-03-21T20:40:55.156Z,14.50
2023-03-21T20:46:47.622Z,14.50
2023-03-21T20:49:33.426Z,14.40
2023-03-21T20:55:24.554Z,14.40
2023-03-21T20:58:30.262Z,14.30
2023-03-21T21:01:16.779Z,14.30
2023-03-21T21:04:02.753Z,13.70
2023-03-21T21:06:48.427Z,14.20
2023-03-21T21:09:34.150Z,14.20
2023-03-21T21:12:20.099Z,14.20
2023-03-21T21:15:09.740Z,14.20
2023-03-21T21:18:06.004Z,14.20
2023-03-21T21:20:57.535Z,14.20
2023-03-21T21:23:43.614Z,14.10
2023-03-21T21:26:29.382Z,14.10
2023-03-21T21:29:18.167Z,14.10
2023-03-21T21:32:05.363Z,14.10
2023-03-21T21:34:50.974Z,14.10
2023-03-21T21:37:36.887Z,14.10
2023-03-21T21:40:23.460Z,14.00
2023-03-21T21:43:09.469Z,14.00
2023-03-21T21:45:55.939Z,14.00
2023-03-21T21:48:41.524Z,14.00
2023-03-21T21:51:27.278Z,13.90
2023-03-21T21:54:18.237Z,13.90
2023-03-21T21:57:04.206Z,13.90
2023-03-21T21:59:54.309Z,13.80
2023-03-21T22:02:40.703Z,13.90
2023-03-21T22:05:26.759Z,13.80
2023-03-21T22:08:12.639Z,13.80
2023-03-21T22:10:59.896Z,13.80
2023-03-21T22:13:46.876Z,13.80
2023-03-21T22:16:33.114Z,13.80
2023-03-21T22:19:19.168Z,13.70
2023-03-21T22:22:04.884Z,13.80
2023-03-21T22:24:50.687Z,13.70
2023-03-21T22:27:36.481Z,13.60
2023-03-21T22:30:22.191Z,13.60
2023-03-21T22:33:09.970Z,13.60
2023-03-21T22:35:55.799Z,13.60
2023-03-21T22:38:42.123Z,13.50
2023-03-21T22:41:28.404Z,13.50
2023-03-21T22:44:14.221Z,13.50
2023-03-21T22:47:03.855Z,13.50
2023-03-21T22:49:50.125Z,13.40
2023-03-21T22:52:36.083Z,13.40
2023-03-21T22:55:21.813Z,13.40
2023-03-21T22:58:07.577Z,13.30
2023-03-21T23:00:53.218Z,13.30
2023-03-21T23:03:38.701Z,13.20
2023-03-21T23:06:24.251Z,13.10
2023-03-21T23:09:09.988Z,13.10
2023-03-21T23:11:55.792Z,13.10
2023-03-21T23:14:42.251Z,13.20
2023-03-21T23:17:28.014Z,13.10
2023-03-21T23:20:13.613Z,13.10
2023-03-21T23:22:59.274Z,13.10
2023-03-21T23:25:45.256Z,13.10
2023-03-21T23:28:30.757Z,13.10
2023-03-21T23:31:21.801Z,13.10
2023-03-21T23:34:07.489Z,13.00
2023-03-21T23:36:53.282Z,12.90
2023-03-21T23:39:39.493Z,12.90
2023-03-21T23:42:25.623Z,12.90
2023-03-21T23:45:11.400Z,12.90
2023-03-21T23:47:57.385Z,12.90
2023-03-21T23:50:43.162Z,12.90
2023-03-21T23:53:28.822Z,12.90
2023-03-21T23:56:18.798Z,12.90
2023-03-21T23:59:04.726Z,12.90
